sensor_id;sensor_type;location;lat;lon;timestamp;pressure;altitude;pressure_sealevel;temperature;humidity
17383;BME280;8809;51.892;8.384;2023-12-29T00:02:10;99889.00;;;11.45;100.00
17383;BME280;8809;51.892;8.384;2023-12-29T00:04:38;99876.06;;;11.50;100.00
17383;BME280;8809;51.892;8.384;2023-12-29T00:07:07;99890.03;;;11.50;100.00
17383;BME280;8809;51.892;8.384;2023-12-29T00:09:33;99883.06;;;11.51;100.00
17383;BME280;8809;51.892;8.384;2023-12-29T00:12:06;99885.88;;;11.59;100.00
17383;BME280;8809;51.892;8.384;2023-12-29T00:14:36;99878.84;;;11.56;100.00
17383;BME280;8809;51.892;8.384;2023-12-29T00:17:03;99877.88;;;11.52;100.00
17383;BME280;8809;51.892;8.384;2023-12-29T00:19:30;99873.75;;;11.61;100.00
17383;BME280;8809;51.892;8.384;2023-12-29T00:21:58;99863.25;;;11.59;100.00
17383;BME280;8809;51.892;8.384;2023-12-29T00:24:26;99861.47;;;11.58;100.00
17383;BME280;8809;51.892;8.384;2023-12-29T00:26:53;99859.97;;;11.68;100.00
17383;BME280;8809;51.892;8.384;2023-12-29T00:29:21;99859.13;;;11.69;100.00
17383;BME280;8809;51.892;8.384;2023-12-29T00:31:48;99859.91;;;11.65;100.00
17383;BME280;8809;51.892;8.384;2023-12-29T00:34:14;99852.84;;;11.61;100.00
17383;BME280;8809;51.892;8.384;2023-12-29T00:36:41;99852.84;;;11.61;100.00
17383;BME280;8809;51.892;8.384;2023-12-29T00:39:08;99862.44;;;11.62;100.00
17383;BME280;8809;51.892;8.384;2023-12-29T00:41:37;99852.72;;;11.56;100.00
17383;BME280;8809;51.892;8.384;2023-12-29T00:44:04;99848.31;;;11.55;100.00
17383;BME280;8809;51.892;8.384;2023-12-29T00:46:31;99834.97;;;11.43;100.00
17383;BME280;8809;51.892;8.384;2023-12-29T00:48:58;99847.81;;;11.35;100.00
17383;BME280;8809;51.892;8.384;2023-12-29T00:51:25;99839.31;;;11.44;100.00
17383;BME280;8809;51.892;8.384;2023-12-29T00:53:52;99843.66;;;11.42;100.00
17383;BME280;8809;51.892;8.384;2023-12-29T00:56:19;99848.00;;;11.41;100.00
17383;BME280;8809;51.892;8.384;2023-12-29T00:58:47;99836.84;;;11.48;100.00
17383;BME280;8809;51.892;8.384;2023-12-29T01:01:14;99828.44;;;11.60;100.00
17383;BME280;8809;51.892;8.384;2023-12-29T01:03:41;99826.53;;;11.54;100.00
17383;BME280;8809;51.892;8.384;2023-12-29T01:06:08;99826.63;;;11.58;100.00
17383;BME280;8809;51.892;8.384;2023-12-29T01:08:35;99834.41;;;11.56;100.00
17383;BME280;8809;51.892;8.384;2023-12-29T01:11:02;99836.19;;;11.57;100.00
17383;BME280;8809;51.892;8.384;2023-12-29T01:13:29;99824.81;;;11.55;100.00
17383;BME280;8809;51.892;8.384;2023-12-29T01:15:58;99824.84;;;11.57;100.00
17383;BME280;8809;51.892;8.384;2023-12-29T01:18:25;99817.88;;;11.56;100.00
17383;BME280;8809;51.892;8.384;2023-12-29T01:20:51;99821.50;;;11.61;100.00
17383;BME280;8809;51.892;8.384;2023-12-29T01:23:20;99829.47;;;11.67;100.00
17383;BME280;8809;51.892;8.384;2023-12-29T01:25:48;99814.81;;;11.72;100.00
17383;BME280;8809;51.892;8.384;2023-12-29T01:28:14;99823.63;;;11.75;100.00
17383;BME280;8809;51.892;8.384;2023-12-29T01:30:42;99810.78;;;11.84;100.00
17383;BME280;8809;51.892;8.384;2023-12-29T01:33:10;99807.22;;;11.81;100.00
17383;BME280;8809;51.892;8.384;2023-12-29T01:35:38;99808.72;;;11.73;100.00
17383;BME280;8809;51.892;8.384;2023-12-29T01:38:05;99792.34;;;11.78;100.00
17383;BME280;8809;51.892;8.384;2023-12-29T01:40:32;99801.75;;;11.72;100.00
17383;BME280;8809;51.892;8.384;2023-12-29T01:43:00;99791.41;;;11.76;100.00
17383;BME280;8809;51.892;8.384;2023-12-29T01:45:27;99806.22;;;11.76;100.00
17383;BME280;8809;51.892;8.384;2023-12-29T01:47:54;99796.47;;;11.70;100.00
17383;BME280;8809;51.892;8.384;2023-12-29T01:50:22;99779.19;;;11.75;100.00
17383;BME280;8809;51.892;8.384;2023-12-29T01:52:50;99786.97;;;11.74;100.00
17383;BME280;8809;51.892;8.384;2023-12-29T01:55:20;99798.41;;;11.77;100.00
17383;BME280;8809;51.892;8.384;2023-12-29T01:57:48;99784.69;;;11.86;100.00
17383;BME280;8809;51.892;8.384;2023-12-29T02:00:16;99780.28;;;11.85;100.00
17383;BME280;8809;51.892;8.384;2023-12-29T02:02:46;99784.59;;;11.83;100.00
17383;BME280;8809;51.892;8.384;2023-12-29T02:05:14;99784.69;;;11.86;100.00
17383;BME280;8809;51.892;8.384;2023-12-29T02:07:43;99782.06;;;11.86;100.00
17383;BME280;8809;51.892;8.384;2023-12-29T02:10:10;99774.34;;;11.91;100.00
17383;BME280;8809;51.892;8.384;2023-12-29T02:12:39;99784.69;;;11.86;100.00
17383;BME280;8809;51.892;8.384;2023-12-29T02:15:07;99761.97;;;11.83;100.00
17383;BME280;8809;51.892;8.384;2023-12-29T02:17:39;99754.03;;;11.79;100.00
17383;BME280;8809;51.892;8.384;2023-12-29T02:20:08;99773.97;;;11.75;100.00
17383;BME280;8809;51.892;8.384;2023-12-29T02:22:37;99780.81;;;11.70;100.00
17383;BME280;8809;51.892;8.384;2023-12-29T02:25:05;99792.06;;;11.68;100.00
17383;BME280;8809;51.892;8.384;2023-12-29T02:27:40;99784.13;;;11.65;100.00
17383;BME280;8809;51.892;8.384;2023-12-29T02:30:13;99782.13;;;11.54;100.00
17383;BME280;8809;51.892;8.384;2023-12-29T02:32:45;99790.53;;;11.41;100.00
17383;BME280;8809;51.892;8.384;2023-12-29T02:35:17;99782.34;;;11.28;100.00
17383;BME280;8809;51.892;8.384;2023-12-29T02:37:45;99772.56;;;11.19;100.00
17383;BME280;8809;51.892;8.384;2023-12-29T02:40:14;99766.25;;;11.11;100.00
17383;BME280;8809;51.892;8.384;2023-12-29T02:42:45;99758.56;;;11.17;100.00
17383;BME280;8809;51.892;8.384;2023-12-29T02:45:12;99769.78;;;11.13;100.00
17383;BME280;8809;51.892;8.384;2023-12-29T02:47:41;99753.84;;;11.02;100.00
17383;BME280;8809;51.892;8.384;2023-12-29T02:50:09;99771.88;;;10.93;100.00
17383;BME280;8809;51.892;8.384;2023-12-29T02:52:37;99759.44;;;10.83;100.00
17383;BME280;8809;51.892;8.384;2023-12-29T02:55:04;99755.94;;;10.83;100.00
17383;BME280;8809;51.892;8.384;2023-12-29T02:57:32;99754.03;;;10.77;100.00
17383;BME280;8809;51.892;8.384;2023-12-29T02:59:59;99761.84;;;10.75;100.00
17383;BME280;8809;51.892;8.384;2023-12-29T03:02:26;99756.53;;;10.72;100.00
17383;BME280;8809;51.892;8.384;2023-12-29T03:04:53;99734.72;;;10.70;100.00
17383;BME280;8809;51.892;8.384;2023-12-29T03:07:20;99737.00;;;10.58;100.00
17383;BME280;8809;51.892;8.384;2023-12-29T03:09:47;99756.72;;;10.49;100.00
17383;BME280;8809;51.892;8.384;2023-12-29T03:12:14;99759.41;;;10.52;100.00
17383;BME280;8809;51.892;8.384;2023-12-29T03:14:43;99745.50;;;10.51;100.00
17383;BME280;8809;51.892;8.384;2023-12-29T03:17:12;99730.72;;;10.52;100.00
17383;BME280;8809;51.892;8.384;2023-12-29T03:19:39;99724.38;;;10.42;100.00
17383;BME280;8809;51.892;8.384;2023-12-29T03:22:07;99730.69;;;10.50;100.00
17383;BME280;8809;51.892;8.384;2023-12-29T03:24:34;99705.44;;;10.49;100.00
17383;BME280;8809;51.892;8.384;2023-12-29T03:27:01;99696.63;;;10.44;100.00
17383;BME280;8809;51.892;8.384;2023-12-29T03:29:28;99694.94;;;10.46;100.00
17383;BME280;8809;51.892;8.384;2023-12-29T03:31:56;99714.09;;;10.48;100.00
17383;BME280;8809;51.892;8.384;2023-12-29T03:34:24;99696.53;;;10.41;100.00
17383;BME280;8809;51.892;8.384;2023-12-29T03:36:51;99684.38;;;10.41;100.00
17383;BME280;8809;51.892;8.384;2023-12-29T03:39:18;99703.41;;;10.39;100.00
17383;BME280;8809;51.892;8.384;2023-12-29T03:41:45;99681.47;;;10.31;100.00
17383;BME280;8809;51.892;8.384;2023-12-29T03:44:12;99658.47;;;10.16;100.00
17383;BME280;8809;51.892;8.384;2023-12-29T03:46:40;99651.03;;;10.28;100.00
17383;BME280;8809;51.892;8.384;2023-12-29T03:49:08;99670.22;;;10.32;100.00
17383;BME280;8809;51.892;8.384;2023-12-29T03:51:37;99673.06;;;10.11;100.00
17383;BME280;8809;51.892;8.384;2023-12-29T03:54:06;99684.31;;;10.09;100.00
17383;BME280;8809;51.892;8.384;2023-12-29T03:56:37;99685.09;;;10.06;100.00
17383;BME280;8809;51.892;8.384;2023-12-29T03:59:04;99692.06;;;10.07;100.00
17383;BME280;8809;51.892;8.384;2023-12-29T04:01:33;99686.66;;;9.99;100.00
17383;BME280;8809;51.892;8.384;2023-12-29T04:04:02;99688.38;;;10.00;100.00
17383;BME280;8809;51.892;8.384;2023-12-29T04:06:31;99694.75;;;10.10;100.00
17383;BME280;8809;51.892;8.384;2023-12-29T04:08:58;99677.31;;;10.08;100.00
17383;BME280;8809;51.892;8.384;2023-12-29T04:11:25;99679.94;;;10.08;100.00
17383;BME280;8809;51.892;8.384;2023-12-29T04:13:51;99684.88;;;9.98;100.00
17383;BME280;8809;51.892;8.384;2023-12-29T04:16:18;99689.38;;;10.04;100.00
17383;BME280;8809;51.892;8.384;2023-12-29T04:18:45;99692.97;;;10.08;100.00
17383;BME280;8809;51.892;8.384;2023-12-29T04:21:13;99683.50;;;10.11;100.00
17383;BME280;8809;51.892;8.384;2023-12-29T04:23:42;99693.97;;;10.13;100.00
17383;BME280;8809;51.892;8.384;2023-12-29T04:26:08;99688.75;;;10.13;100.00
17383;BME280;8809;51.892;8.384;2023-12-29T04:28:35;99693.97;;;10.13;100.00
17383;BME280;8809;51.892;8.384;2023-12-29T04:31:02;99683.44;;;10.10;100.00
17383;BME280;8809;51.892;8.384;2023-12-29T04:33:29;99689.84;;;10.19;100.00
17383;BME280;8809;51.892;8.384;2023-12-29T04:35:56;99688.97;;;10.19;100.00
17383;BME280;8809;51.892;8.384;2023-12-29T04:38:23;99683.78;;;10.20;100.00
17383;BME280;8809;51.892;8.384;2023-12-29T04:40:51;99687.38;;;10.24;100.00
17383;BME280;8809;51.892;8.384;2023-12-29T04:43:18;99687.06;;;10.15;100.00
17383;BME280;8809;51.892;8.384;2023-12-29T04:45:45;99684.59;;;10.18;100.00
17383;BME280;8809;51.892;8.384;2023-12-29T04:48:12;99685.59;;;10.23;100.00
17383;BME280;8809;51.892;8.384;2023-12-29T04:50:39;99681.31;;;10.25;100.00
17383;BME280;8809;51.892;8.384;2023-12-29T04:53:06;99689.19;;;10.26;100.00
17383;BME280;8809;51.892;8.384;2023-12-29T04:55:33;99681.31;;;10.25;100.00
17383;BME280;8809;51.892;8.384;2023-12-29T04:58:01;99688.41;;;10.30;100.00
17383;BME280;8809;51.892;8.384;2023-12-29T05:00:28;99695.34;;;10.30;100.00
17383;BME280;8809;51.892;8.384;2023-12-29T05:02:55;99687.66;;;10.34;100.00
17383;BME280;8809;51.892;8.384;2023-12-29T05:05:22;99679.59;;;10.25;100.00
17383;BME280;8809;51.892;8.384;2023-12-29T05:07:49;99682.25;;;10.27;100.00
17383;BME280;8809;51.892;8.384;2023-12-29T05:10:15;99695.13;;;10.22;100.00
17383;BME280;8809;51.892;8.384;2023-12-29T05:12:42;99692.94;;;10.36;100.00
17383;BME280;8809;51.892;8.384;2023-12-29T05:15:11;99686.94;;;10.40;100.00
17383;BME280;8809;51.892;8.384;2023-12-29T05:17:38;99694.03;;;10.44;100.00
17383;BME280;8809;51.892;8.384;2023-12-29T05:20:07;99695.19;;;10.55;100.00
17383;BME280;8809;51.892;8.384;2023-12-29T05:22:34;99691.72;;;10.55;100.00
17383;BME280;8809;51.892;8.384;2023-12-29T05:25:01;99684.88;;;10.60;100.00
17383;BME280;8809;51.892;8.384;2023-12-29T05:27:29;99691.06;;;10.63;100.00
17383;BME280;8809;51.892;8.384;2023-12-29T05:29:56;99683.28;;;10.65;100.00
17383;BME280;8809;51.892;8.384;2023-12-29T05:32:24;99688.66;;;10.71;100.00
17383;BME280;8809;51.892;8.384;2023-12-29T05:34:51;99695.59;;;10.70;100.00
17383;BME280;8809;51.892;8.384;2023-12-29T05:37:18;99696.47;;;10.71;100.00
17383;BME280;8809;51.892;8.384;2023-12-29T05:39:45;99681.72;;;10.71;100.00
17383;BME280;8809;51.892;8.384;2023-12-29T05:42:12;99682.09;;;10.85;100.00
17383;BME280;8809;51.892;8.384;2023-12-29T05:44:39;99686.44;;;10.86;100.00
17383;BME280;8809;51.892;8.384;2023-12-29T05:47:06;99689.03;;;10.85;100.00
17383;BME280;8809;51.892;8.384;2023-12-29T05:49:34;99681.25;;;10.88;100.00
17383;BME280;8809;51.892;8.384;2023-12-29T05:52:05;99698.81;;;10.93;100.00
17383;BME280;8809;51.892;8.384;2023-12-29T05:54:32;99692.91;;;11.00;100.00
17383;BME280;8809;51.892;8.384;2023-12-29T05:56:59;99700.63;;;10.97;100.00
17383;BME280;8809;51.892;8.384;2023-12-29T05:59:26;99698.16;;;11.02;100.00
17383;BME280;8809;51.892;8.384;2023-12-29T06:01:53;99701.94;;;11.13;100.00
17383;BME280;8809;51.892;8.384;2023-12-29T06:04:20;99695.06;;;11.18;100.00
17383;BME280;8809;51.892;8.384;2023-12-29T06:06:48;99695.88;;;11.15;100.00
17383;BME280;8809;51.892;8.384;2023-12-29T06:09:15;99699.41;;;11.18;100.00
17383;BME280;8809;51.892;8.384;2023-12-29T06:11:42;99695.88;;;11.14;100.00
17383;BME280;8809;51.892;8.384;2023-12-29T06:14:09;99708.22;;;11.21;100.00
17383;BME280;8809;51.892;8.384;2023-12-29T06:16:37;99714.31;;;11.22;100.00
17383;BME280;8809;51.892;8.384;2023-12-29T06:19:03;99707.50;;;11.28;100.00
17383;BME280;8809;51.892;8.384;2023-12-29T06:21:33;99704.13;;;11.32;100.00
17383;BME280;8809;51.892;8.384;2023-12-29T06:24:02;99713.66;;;11.30;100.00
17383;BME280;8809;51.892;8.384;2023-12-29T06:26:29;99722.28;;;11.28;100.00
17383;BME280;8809;51.892;8.384;2023-12-29T06:28:56;99722.16;;;11.22;100.00
17383;BME280;8809;51.892;8.384;2023-12-29T06:31:23;99720.19;;;11.13;100.00
17383;BME280;8809;51.892;8.384;2023-12-29T06:33:50;99732.28;;;11.09;100.00
17383;BME280;8809;51.892;8.384;2023-12-29T06:36:17;99715.72;;;11.09;100.00
17383;BME280;8809;51.892;8.384;2023-12-29T06:38:44;99717.78;;;11.21;100.00
17383;BME280;8809;51.892;8.384;2023-12-29T06:41:16;99736.84;;;11.18;100.00
17383;BME280;8809;51.892;8.384;2023-12-29T06:43:44;99722.06;;;11.19;100.00
17383;BME280;8809;51.892;8.384;2023-12-29T06:46:11;99716.09;;;11.23;100.00
17383;BME280;8809;51.892;8.384;2023-12-29T06:48:39;99710.81;;;11.21;100.00
17383;BME280;8809;51.892;8.384;2023-12-29T06:51:06;99703.75;;;11.17;100.00
17383;BME280;8809;51.892;8.384;2023-12-29T06:53:35;99735.97;;;11.18;100.00
17383;BME280;8809;51.892;8.384;2023-12-29T06:56:03;99724.63;;;11.17;100.00
17383;BME280;8809;51.892;8.384;2023-12-29T06:58:32;99723.00;;;11.21;100.00
17383;BME280;8809;51.892;8.384;2023-12-29T07:00:58;99727.31;;;11.20;100.00
17383;BME280;8809;51.892;8.384;2023-12-29T07:03:26;99728.03;;;11.13;100.00
17383;BME280;8809;51.892;8.384;2023-12-29T07:05:53;99729.78;;;11.14;100.00
17383;BME280;8809;51.892;8.384;2023-12-29T07:08:20;99732.56;;;11.20;100.00
17383;BME280;8809;51.892;8.384;2023-12-29T07:10:47;99745.59;;;11.20;100.00
17383;BME280;8809;51.892;8.384;2023-12-29T07:13:15;99744.06;;;11.28;100.00
17383;BME280;8809;51.892;8.384;2023-12-29T07:15:44;99737.28;;;11.36;100.00
17383;BME280;8809;51.892;8.384;2023-12-29T07:18:11;99748.31;;;11.25;100.00
17383;BME280;8809;51.892;8.384;2023-12-29T07:20:38;99749.41;;;11.34;100.00
17383;BME280;8809;51.892;8.384;2023-12-29T07:23:05;99759.53;;;11.21;100.00
17383;BME280;8809;51.892;8.384;2023-12-29T07:25:32;99804.84;;;11.23;100.00
17383;BME280;8809;51.892;8.384;2023-12-29T07:27:59;99751.28;;;11.38;100.00
17383;BME280;8809;51.892;8.384;2023-12-29T07:30:26;99762.59;;;11.39;100.00
17383;BME280;8809;51.892;8.384;2023-12-29T07:32:54;99751.38;;;11.41;100.00
17383;BME280;8809;51.892;8.384;2023-12-29T07:35:21;99758.50;;;11.48;100.00
17383;BME280;8809;51.892;8.384;2023-12-29T07:37:48;99753.84;;;11.37;100.00
17383;BME280;8809;51.892;8.384;2023-12-29T07:40:16;99752.72;;;11.27;100.00
17383;BME280;8809;51.892;8.384;2023-12-29T07:42:43;99751.13;;;11.32;100.00
17383;BME280;8809;51.892;8.384;2023-12-29T07:45:12;99757.06;;;11.27;100.00
17383;BME280;8809;51.892;8.384;2023-12-29T07:47:39;99753.03;;;11.39;100.00
17383;BME280;8809;51.892;8.384;2023-12-29T07:50:07;99746.75;;;11.31;100.00
17383;BME280;8809;51.892;8.384;2023-12-29T07:52:34;99752.81;;;11.30;100.00
17383;BME280;8809;51.892;8.384;2023-12-29T07:55:05;99770.31;;;11.33;100.00
17383;BME280;8809;51.892;8.384;2023-12-29T07:57:32;99745.97;;;11.35;100.00
17383;BME280;8809;51.892;8.384;2023-12-29T07:59:59;99750.16;;;11.29;100.00
17383;BME280;8809;51.892;8.384;2023-12-29T08:02:25;99745.88;;;11.31;100.00
17383;BME280;8809;51.892;8.384;2023-12-29T08:04:53;99740.69;;;11.32;100.00
17383;BME280;8809;51.892;8.384;2023-12-29T08:07:22;99745.22;;;11.39;100.00
17383;BME280;8809;51.892;8.384;2023-12-29T08:09:49;99736.53;;;11.40;100.00
17383;BME280;8809;51.892;8.384;2023-12-29T08:12:17;99739.09;;;11.39;100.00
17383;BME280;8809;51.892;8.384;2023-12-29T08:14:44;99728.25;;;11.22;100.00
17383;BME280;8809;51.892;8.384;2023-12-29T08:17:12;99730.91;;;11.24;100.00
17383;BME280;8809;51.892;8.384;2023-12-29T08:19:40;99742.47;;;11.33;100.00
17383;BME280;8809;51.892;8.384;2023-12-29T08:22:07;99738.19;;;11.37;100.00
17383;BME280;8809;51.892;8.384;2023-12-29T08:24:35;99747.47;;;11.24;100.00
17383;BME280;8809;51.892;8.384;2023-12-29T08:27:02;99750.13;;;11.27;100.00
17383;BME280;8809;51.892;8.384;2023-12-29T08:29:30;99743.91;;;11.22;100.00
17383;BME280;8809;51.892;8.384;2023-12-29T08:31:57;99747.19;;;11.15;100.00
17383;BME280;8809;51.892;8.384;2023-12-29T08:34:23;99756.56;;;11.07;100.00
17383;BME280;8809;51.892;8.384;2023-12-29T08:36:51;99730.41;;;11.04;100.00
17383;BME280;8809;51.892;8.384;2023-12-29T08:39:18;99721.38;;;10.91;100.00
17383;BME280;8809;51.892;8.384;2023-12-29T08:41:48;99718.72;;;10.90;100.00
17383;BME280;8809;51.892;8.384;2023-12-29T08:44:16;99715.75;;;10.76;100.00
17383;BME280;8809;51.892;8.384;2023-12-29T08:46:43;99723.44;;;10.71;100.00
17383;BME280;8809;51.892;8.384;2023-12-29T08:49:10;99726.22;;;10.77;100.00
17383;BME280;8809;51.892;8.384;2023-12-29T08:51:39;99714.00;;;10.75;100.00
17383;BME280;8809;51.892;8.384;2023-12-29T08:54:06;99727.78;;;10.71;100.00
17383;BME280;8809;51.892;8.384;2023-12-29T08:56:33;99721.81;;;10.75;100.00
17383;BME280;8809;51.892;8.384;2023-12-29T08:59:02;99718.72;;;10.57;100.00
17383;BME280;8809;51.892;8.384;2023-12-29T09:01:28;99718.78;;;10.60;100.00
17383;BME280;8809;51.892;8.384;2023-12-29T09:03:55;99714.34;;;10.56;100.00
17383;BME280;8809;51.892;8.384;2023-12-29T09:06:22;99717.06;;;10.60;100.00
17383;BME280;8809;51.892;8.384;2023-12-29T09:08:50;99729.09;;;10.55;100.00
17383;BME280;8809;51.892;8.384;2023-12-29T09:11:17;99718.47;;;10.49;100.00
17383;BME280;8809;51.892;8.384;2023-12-29T09:13:45;99722.53;;;10.69;100.00
17383;BME280;8809;51.892;8.384;2023-12-29T09:16:13;99716.94;;;10.56;100.00
17383;BME280;8809;51.892;8.384;2023-12-29T09:18:40;99709.78;;;10.49;100.00
17383;BME280;8809;51.892;8.384;2023-12-29T09:21:07;99716.06;;;10.55;100.00
17383;BME280;8809;51.892;8.384;2023-12-29T09:23:35;99705.38;;;10.46;100.00
17383;BME280;8809;51.892;8.384;2023-12-29T09:26:04;99712.28;;;10.44;100.00
17383;BME280;8809;51.892;8.384;2023-12-29T09:28:32;99705.19;;;10.40;100.00
17383;BME280;8809;51.892;8.384;2023-12-29T09:30:59;99710.34;;;10.37;100.00
17383;BME280;8809;51.892;8.384;2023-12-29T09:33:28;99715.00;;;10.49;100.00
17383;BME280;8809;51.892;8.384;2023-12-29T09:35:56;99714.09;;;10.48;100.00
17383;BME280;8809;51.892;8.384;2023-12-29T09:38:23;99716.22;;;10.61;100.00
17383;BME280;8809;51.892;8.384;2023-12-29T09:40:50;99728.47;;;10.64;100.00
17383;BME280;8809;51.892;8.384;2023-12-29T09:43:19;99733.88;;;10.71;100.00
17383;BME280;8809;51.892;8.384;2023-12-29T09:45:47;99738.31;;;10.74;100.00
17383;BME280;8809;51.892;8.384;2023-12-29T09:48:19;99732.22;;;10.73;100.00
17383;BME280;8809;51.892;8.384;2023-12-29T09:50:50;99727.00;;;10.73;100.00
17383;BME280;8809;51.892;8.384;2023-12-29T09:53:21;99727.75;;;10.69;100.00
17383;BME280;8809;51.892;8.384;2023-12-29T09:55:49;99735.06;;;10.83;100.00
17383;BME280;8809;51.892;8.384;2023-12-29T09:58:17;99735.09;;;10.84;100.00
17383;BME280;8809;51.892;8.384;2023-12-29T10:00:46;99737.03;;;10.91;100.00
17383;BME280;8809;51.892;8.384;2023-12-29T10:03:16;99742.34;;;10.94;100.00
17383;BME280;8809;51.892;8.384;2023-12-29T10:05:43;99739.34;;;10.81;100.00
17383;BME280;8809;51.892;8.384;2023-12-29T10:08:13;99737.81;;;10.89;100.00
17383;BME280;8809;51.892;8.384;2023-12-29T10:10:42;99739.59;;;10.90;100.00
17383;BME280;8809;51.892;8.384;2023-12-29T10:13:10;99731.13;;;10.98;100.00
17383;BME280;8809;51.892;8.384;2023-12-29T10:15:42;99727.47;;;10.92;100.00
17383;BME280;8809;51.892;8.384;2023-12-29T10:18:20;99729.47;;;11.02;100.00
17383;BME280;8809;51.892;8.384;2023-12-29T10:20:52;99722.31;;;11.29;100.00
17383;BME280;8809;51.892;8.384;2023-12-29T10:23:30;99738.13;;;11.35;100.00
17383;BME280;8809;51.892;8.384;2023-12-29T10:25:58;99742.41;;;11.32;100.00
17383;BME280;8809;51.892;8.384;2023-12-29T10:28:25;99736.41;;;11.36;100.00
17383;BME280;8809;51.892;8.384;2023-12-29T10:30:52;99741.50;;;11.30;100.00
17383;BME280;8809;51.892;8.384;2023-12-29T10:33:21;99745.69;;;11.23;100.00
17383;BME280;8809;51.892;8.384;2023-12-29T10:36:00;99739.09;;;11.39;100.00
17383;BME280;8809;51.892;8.384;2023-12-29T10:38:30;99752.16;;;11.39;100.00
17383;BME280;8809;51.892;8.384;2023-12-29T10:41:11;99747.06;;;11.45;100.00
17383;BME280;8809;51.892;8.384;2023-12-29T10:43:40;99742.59;;;11.39;100.00
17383;BME280;8809;51.892;8.384;2023-12-29T10:46:09;99743.34;;;11.34;100.00
17383;BME280;8809;51.892;8.384;2023-12-29T10:48:39;99720.75;;;11.36;100.00
17383;BME280;8809;51.892;8.384;2023-12-29T10:51:06;99699.13;;;11.41;100.00
17383;BME280;8809;51.892;8.384;2023-12-29T10:53:40;99710.47;;;11.42;100.00
17383;BME280;8809;51.892;8.384;2023-12-29T10:56:16;99748.75;;;11.41;100.00
17383;BME280;8809;51.892;8.384;2023-12-29T10:58:46;99702.66;;;11.43;100.00
17383;BME280;8809;51.892;8.384;2023-12-29T11:01:14;99713.97;;;11.44;100.00
17383;BME280;8809;51.892;8.384;2023-12-29T11:03:57;99718.69;;;11.59;100.00
17383;BME280;8809;51.892;8.384;2023-12-29T11:06:25;99717.47;;;11.43;100.00
17383;BME280;8809;51.892;8.384;2023-12-29T11:08:54;99700.94;;;11.45;100.00
17383;BME280;8809;51.892;8.384;2023-12-29T11:11:21;99717.38;;;11.40;100.00
17383;BME280;8809;51.892;8.384;2023-12-29T11:13:48;99710.34;;;11.37;100.00
17383;BME280;8809;51.892;8.384;2023-12-29T11:16:16;99707.81;;;11.40;100.00
17383;BME280;8809;51.892;8.384;2023-12-29T11:18:47;99712.00;;;11.34;100.00
17383;BME280;8809;51.892;8.384;2023-12-29T11:21:16;99720.81;;;11.39;100.00
17383;BME280;8809;51.892;8.384;2023-12-29T11:23:45;99713.03;;;11.40;100.00
17383;BME280;8809;51.892;8.384;2023-12-29T11:26:15;99721.88;;;11.47;100.00
17383;BME280;8809;51.892;8.384;2023-12-29T11:28:43;99720.25;;;11.50;100.00
17383;BME280;8809;51.892;8.384;2023-12-29T11:31:12;99722.81;;;11.49;100.00
17383;BME280;8809;51.892;8.384;2023-12-29T11:33:41;99722.72;;;11.46;100.00
17383;BME280;8809;51.892;8.384;2023-12-29T11:36:15;99711.34;;;11.44;100.00
17383;BME280;8809;51.892;8.384;2023-12-29T11:38:49;99728.06;;;11.50;100.00
17383;BME280;8809;51.892;8.384;2023-12-29T11:41:21;99711.06;;;11.68;100.00
17383;BME280;8809;51.892;8.384;2023-12-29T11:43:58;99721.38;;;11.63;100.00
17383;BME280;8809;51.892;8.384;2023-12-29T11:46:35;99736.13;;;11.60;100.00
17383;BME280;8809;51.892;8.384;2023-12-29T11:49:02;99719.31;;;11.48;100.00
17383;BME280;8809;51.892;8.384;2023-12-29T11:51:31;99709.34;;;11.32;100.00
17383;BME280;8809;51.892;8.384;2023-12-29T11:53:59;99707.94;;;11.46;100.00
17383;BME280;8809;51.892;8.384;2023-12-29T11:56:38;99724.50;;;11.47;100.00
17383;BME280;8809;51.892;8.384;2023-12-29T11:59:13;99728.03;;;11.49;100.00
17383;BME280;8809;51.892;8.384;2023-12-29T12:01:39;99721.00;;;11.46;100.00
17383;BME280;8809;51.892;8.384;2023-12-29T12:04:33;99727.09;;;11.47;100.00
17383;BME280;8809;51.892;8.384;2023-12-29T12:07:03;99719.22;;;11.45;100.00
17383;BME280;8809;51.892;8.384;2023-12-29T12:09:30;99709.75;;;11.49;100.00
17383;BME280;8809;51.892;8.384;2023-12-29T12:12:02;99715.06;;;11.53;100.00
17383;BME280;8809;51.892;8.384;2023-12-29T12:14:49;99707.22;;;11.53;100.00
17383;BME280;8809;51.892;8.384;2023-12-29T12:17:30;99711.72;;;11.59;100.00
17383;BME280;8809;51.892;8.384;2023-12-29T12:19:58;99700.41;;;11.59;100.00
17383;BME280;8809;51.892;8.384;2023-12-29T12:22:28;99707.56;;;11.67;100.00
17383;BME280;8809;51.892;8.384;2023-12-29T12:24:56;99707.00;;;11.79;100.00
17383;BME280;8809;51.892;8.384;2023-12-29T12:27:26;99706.91;;;11.76;100.00
17383;BME280;8809;51.892;8.384;2023-12-29T12:29:55;99716.53;;;11.77;100.00
17383;BME280;8809;51.892;8.384;2023-12-29T12:32:25;99706.34;;;11.89;100.00
17383;BME280;8809;51.892;8.384;2023-12-29T12:34:52;99725.38;;;11.82;100.00
17383;BME280;8809;51.892;8.384;2023-12-29T12:37:20;99714.00;;;11.80;100.00
17383;BME280;8809;51.892;8.384;2023-12-29T12:39:47;99718.63;;;11.92;100.00
17383;BME280;8809;51.892;8.384;2023-12-29T12:42:15;99719.38;;;11.87;100.00
17383;BME280;8809;51.892;8.384;2023-12-29T12:44:49;99712.53;;;11.94;100.00
17383;BME280;8809;51.892;8.384;2023-12-29T12:47:25;99704.66;;;11.93;100.00
17383;BME280;8809;51.892;8.384;2023-12-29T12:49:54;99709.94;;;11.94;100.00
17383;BME280;8809;51.892;8.384;2023-12-29T12:52:21;99729.25;;;12.01;100.00
17383;BME280;8809;51.892;8.384;2023-12-29T12:54:49;99703.31;;;12.11;100.00
17383;BME280;8809;51.892;8.384;2023-12-29T12:57:20;99712.09;;;12.13;100.00
17383;BME280;8809;51.892;8.384;2023-12-29T12:59:49;99707.84;;;12.18;100.00
17383;BME280;8809;51.892;8.384;2023-12-29T13:02:17;99708.91;;;12.28;100.00
17383;BME280;8809;51.892;8.384;2023-12-29T13:04:45;99703.69;;;12.28;100.00
17383;BME280;8809;51.892;8.384;2023-12-29T13:07:17;99700.09;;;12.23;100.00